createdAt,value
2023-03-02T00:03:46.571Z,21.19
2023-03-02T00:07:46.294Z,21.19
2023-03-02T00:11:46.109Z,21.22
2023-03-02T00:15:45.961Z,21.16
2023-03-02T00:19:45.754Z,21.21
2023-03-02T00:23:45.687Z,21.18
2023-03-02T00:27:45.559Z,21.16
2023-03-02T00:31:45.442Z,21.18
2023-03-02T00:35:45.224Z,21.16
2023-03-02T00:39:45.008Z,21.13
2023-03-02T00:43:44.836Z,21.15
2023-03-02T00:47:44.664Z,21.15
2023-03-02T00:51:44.517Z,21.12
2023-03-02T00:55:44.351Z,21.12
2023-03-02T00:59:44.202Z,21.16
2023-03-02T01:03:44.114Z,21.12
2023-03-02T01:07:44.182Z,21.16
2023-03-02T01:11:44.237Z,21.13
2023-03-02T01:15:44.372Z,21.15
2023-03-02T01:19:44.409Z,21.10
2023-03-02T01:23:44.621Z,21.10
2023-03-02T01:27:44.857Z,21.12
2023-03-02T01:31:44.546Z,21.13
2023-03-02T01:35:44.371Z,21.08
2023-03-02T01:39:44.149Z,21.12
2023-03-02T01:43:43.967Z,21.15
2023-03-02T01:47:43.787Z,21.12
2023-03-02T01:51:43.626Z,21.13
2023-03-02T01:55:43.372Z,21.10
2023-03-02T01:59:43.318Z,21.08
2023-03-02T02:03:43.224Z,21.08
2023-03-02T02:07:42.849Z,21.09
2023-03-02T02:11:42.772Z,21.09
2023-03-02T02:15:42.703Z,21.08
2023-03-02T02:19:42.480Z,21.08
2023-03-02T02:23:42.783Z,21.09
2023-03-02T02:27:42.756Z,21.09
2023-03-02T02:31:42.714Z,21.05
2023-03-02T02:35:42.948Z,21.08
2023-03-02T02:39:42.730Z,21.08
2023-03-02T02:43:43.710Z,21.05
2023-03-02T02:47:42.810Z,21.05
2023-03-02T02:51:42.575Z,21.05
2023-03-02T02:55:42.465Z,21.06
2023-03-02T02:59:42.410Z,21.06
2023-03-02T03:03:42.018Z,21.06
2023-03-02T03:07:41.985Z,21.05
2023-03-02T03:11:41.735Z,21.02
2023-03-02T03:15:41.512Z,21.06
2023-03-02T03:19:41.273Z,21.05
2023-03-02T03:23:41.092Z,21.03
2023-03-02T03:27:40.958Z,21.03
2023-03-02T03:31:40.772Z,21.03
2023-03-02T03:35:40.628Z,21.01
2023-03-02T03:39:40.413Z,21.02
2023-03-02T03:43:40.216Z,21.02
2023-03-02T03:47:40.082Z,21.01
2023-03-02T03:51:39.862Z,20.99
2023-03-02T03:55:39.667Z,21.02
2023-03-02T03:59:39.520Z,21.01
2023-03-02T04:03:39.384Z,20.99
2023-03-02T04:07:39.172Z,20.99
2023-03-02T04:11:38.988Z,20.99
2023-03-02T04:15:39.079Z,20.99
2023-03-02T04:19:38.755Z,20.98
2023-03-02T04:23:38.493Z,21.02
2023-03-02T04:27:38.290Z,21.01
2023-03-02T04:31:38.120Z,20.98
2023-03-02T04:35:38.019Z,20.98
2023-03-02T04:39:37.754Z,20.98
2023-03-02T04:43:37.508Z,20.98
2023-03-02T04:47:37.360Z,20.98
2023-03-02T04:51:37.251Z,20.99
2023-03-02T04:55:37.011Z,20.95
2023-03-02T04:59:36.848Z,20.96
2023-03-02T05:03:36.658Z,20.94
2023-03-02T05:07:36.508Z,20.95
2023-03-02T05:11:36.330Z,20.94
2023-03-02T05:15:36.170Z,20.96
2023-03-02T05:19:36.024Z,20.94
2023-03-02T05:23:35.845Z,20.95
2023-03-02T05:27:35.736Z,20.94
2023-03-02T05:31:35.658Z,20.96
2023-03-02T05:35:35.632Z,20.95
2023-03-02T05:39:35.524Z,20.95
2023-03-02T05:43:35.366Z,20.98
2023-03-02T05:47:35.243Z,21.01
2023-03-02T05:51:35.074Z,21.03
2023-03-02T05:55:35.074Z,20.88
2023-03-02T05:59:35.157Z,20.76
2023-03-02T06:03:35.214Z,20.68
2023-03-02T06:07:35.338Z,20.71
2023-03-02T06:11:35.384Z,20.72
2023-03-02T06:15:35.427Z,20.74
2023-03-02T06:19:35.461Z,20.78
2023-03-02T06:23:35.527Z,20.82
2023-03-02T06:27:35.505Z,20.94
2023-03-02T06:31:35.531Z,20.92
2023-03-02T06:35:35.668Z,20.91
2023-03-02T06:39:36.124Z,20.99
2023-03-02T06:43:35.735Z,21.06
2023-03-02T06:47:36.123Z,21.16
2023-03-02T06:51:36.641Z,21.23
2023-03-02T06:55:36.175Z,21.23
2023-03-02T06:59:36.113Z,21.21
2023-03-02T07:03:36.237Z,21.19
2023-03-02T07:07:35.487Z,21.22
2023-03-02T07:11:35.398Z,21.19
2023-03-02T07:15:35.235Z,21.30
2023-03-02T07:19:35.157Z,21.28
2023-03-02T07:23:35.091Z,21.26
2023-03-02T07:27:34.816Z,21.16
2023-03-02T07:31:35.130Z,21.33
2023-03-02T07:35:34.693Z,21.39
2023-03-02T07:39:34.462Z,21.42
2023-03-02T07:43:34.338Z,21.38
2023-03-02T07:47:34.633Z,21.40
2023-03-02T07:51:34.826Z,21.45
2023-03-02T07:55:34.107Z,21.45
2023-03-02T07:59:34.136Z,21.52
2023-03-02T08:03:34.608Z,21.54
2023-03-02T08:07:33.977Z,21.62
2023-03-02T08:11:34.486Z,21.77
2023-03-02T08:15:33.620Z,21.80
2023-03-02T08:19:33.483Z,21.89
2023-03-02T08:23:33.343Z,21.97
2023-03-02T08:27:33.158Z,22.03
2023-03-02T08:31:33.299Z,22.07
2023-03-02T08:35:33.165Z,22.10
2023-03-02T08:39:33.164Z,22.14
2023-03-02T08:43:32.679Z,21.92
2023-03-02T08:47:32.549Z,22.00
2023-03-02T08:51:33.070Z,22.07
2023-03-02T08:55:32.161Z,22.13
2023-03-02T08:59:32.132Z,22.21
2023-03-02T09:03:31.776Z,22.18
2023-03-02T09:07:31.650Z,22.20
2023-03-02T09:11:31.705Z,22.17
2023-03-02T09:15:31.255Z,22.13
2023-03-02T09:19:31.024Z,22.13
2023-03-02T09:23:30.861Z,22.16
2023-03-02T09:27:31.198Z,22.16
2023-03-02T09:31:30.773Z,22.17
2023-03-02T09:35:30.646Z,22.21
2023-03-02T09:39:30.207Z,22.21
2023-03-02T09:43:30.163Z,22.24
2023-03-02T09:47:35.800Z,22.28
2023-03-02T09:51:31.433Z,22.33
2023-03-02T09:55:29.577Z,22.37
2023-03-02T09:59:29.480Z,22.41
2023-03-02T10:03:29.768Z,22.40
2023-03-02T10:07:29.490Z,22.43
2023-03-02T10:11:29.467Z,22.48
2023-03-02T10:15:29.692Z,22.50
2023-03-02T10:19:29.517Z,22.51
2023-03-02T10:23:29.498Z,22.57
2023-03-02T10:27:29.716Z,22.57
2023-03-02T10:31:29.584Z,22.58
2023-03-02T10:35:29.747Z,22.55
2023-03-02T10:39:29.703Z,22.51
2023-03-02T10:43:30.280Z,22.43
2023-03-02T10:47:29.608Z,22.47
2023-03-02T10:51:29.690Z,22.52
2023-03-02T10:55:29.389Z,22.62
2023-03-02T10:59:29.284Z,22.70
2023-03-02T11:03:29.200Z,22.68
2023-03-02T11:07:29.222Z,22.64
2023-03-02T11:11:29.204Z,22.67
2023-03-02T11:15:29.220Z,22.65
2023-03-02T11:19:29.689Z,22.62
2023-03-02T11:23:29.204Z,22.59
2023-03-02T11:27:29.250Z,22.59
2023-03-02T11:31:29.830Z,22.59
2023-03-02T11:35:29.320Z,22.58
2023-03-02T11:39:29.360Z,22.43
2023-03-02T11:43:29.722Z,22.41
2023-03-02T11:47:29.350Z,22.59
2023-03-02T11:51:29.721Z,22.68
2023-03-02T11:55:29.200Z,22.72
2023-03-02T11:59:29.178Z,22.72
2023-03-02T12:03:29.098Z,22.71
2023-03-02T12:07:29.221Z,22.72
2023-03-02T12:11:29.113Z,22.75
2023-03-02T12:15:29.032Z,22.74
2023-03-02T12:19:28.910Z,22.75
2023-03-02T12:23:28.797Z,22.75
2023-03-02T12:27:28.761Z,22.78
2023-03-02T12:31:28.590Z,22.75
2023-03-02T12:35:28.830Z,22.74
2023-03-02T12:39:28.434Z,22.79
2023-03-02T12:43:28.213Z,22.81
2023-03-02T12:47:28.449Z,22.82
2023-03-02T12:51:27.939Z,22.81
2023-03-02T12:55:27.733Z,22.79
2023-03-02T12:59:27.732Z,22.79
2023-03-02T13:03:27.410Z,22.74
2023-03-02T13:07:27.316Z,22.64
2023-03-02T13:11:27.195Z,22.52
2023-03-02T13:15:27.267Z,22.55
2023-03-02T13:19:26.857Z,22.47
2023-03-02T13:23:26.747Z,22.38
2023-03-02T13:27:26.785Z,22.41
2023-03-02T13:31:26.786Z,22.33
2023-03-02T13:35:26.762Z,22.30
2023-03-02T13:39:26.489Z,22.20
2023-03-02T13:43:26.482Z,22.14
2023-03-02T13:47:26.758Z,22.18
2023-03-02T13:51:26.230Z,22.23
2023-03-02T13:55:26.187Z,22.18
2023-03-02T13:59:26.117Z,22.10
2023-03-02T14:03:26.263Z,22.04
2023-03-02T14:07:26.094Z,22.07
2023-03-02T14:11:26.058Z,22.07
2023-03-02T14:15:26.053Z,22.00
2023-03-02T14:19:26.287Z,22.04
2023-03-02T14:23:25.869Z,22.04
2023-03-02T14:27:25.639Z,21.99
2023-03-02T14:31:25.591Z,22.00
2023-03-02T14:35:25.868Z,22.08
2023-03-02T14:39:25.206Z,22.01
2023-03-02T14:43:25.046Z,21.97
2023-03-02T14:47:24.993Z,21.90
2023-03-02T14:51:24.888Z,22.01
2023-03-02T14:55:24.743Z,22.11
2023-03-02T14:59:24.649Z,22.14
2023-03-02T15:03:24.516Z,22.08
2023-03-02T15:07:24.271Z,22.16
2023-03-02T15:11:24.292Z,22.16
2023-03-02T15:15:23.951Z,22.16
2023-03-02T15:19:23.802Z,22.01
2023-03-02T15:23:23.628Z,22.01
2023-03-02T15:27:23.499Z,22.04
2023-03-02T15:31:23.371Z,22.00
2023-03-02T15:35:23.167Z,21.94
2023-03-02T15:39:23.056Z,21.84
2023-03-02T15:43:22.934Z,21.87
2023-03-02T15:47:22.834Z,21.86
2023-03-02T15:51:22.759Z,21.83
2023-03-02T15:55:22.651Z,21.89
2023-03-02T15:59:22.650Z,21.87
2023-03-02T16:03:22.568Z,21.83
2023-03-02T16:07:22.492Z,21.76
2023-03-02T16:11:22.465Z,21.77
2023-03-02T16:15:22.358Z,21.64
2023-03-02T16:19:22.424Z,21.57
2023-03-02T16:23:22.387Z,21.59
2023-03-02T16:27:22.234Z,21.72
2023-03-02T16:31:22.236Z,21.77
2023-03-02T16:35:22.291Z,21.82
2023-03-02T16:39:22.219Z,21.80
2023-03-02T16:43:22.201Z,21.96
2023-03-02T16:47:22.244Z,21.94
2023-03-02T16:51:22.227Z,21.72
2023-03-02T16:55:22.322Z,21.63
2023-03-02T16:59:22.140Z,21.60
2023-03-02T17:03:23.695Z,21.69
2023-03-02T17:07:22.165Z,21.73
2023-03-02T17:11:22.125Z,21.69
2023-03-02T17:15:22.102Z,21.77
2023-03-02T17:19:22.097Z,21.77
2023-03-02T17:23:22.065Z,21.80
2023-03-02T17:27:25.298Z,21.82
2023-03-02T17:31:21.907Z,21.74
2023-03-02T17:35:21.651Z,21.62
2023-03-02T17:39:21.462Z,21.62
2023-03-02T17:43:21.282Z,21.63
2023-03-02T17:47:21.067Z,21.67
2023-03-02T17:51:20.883Z,21.67
2023-03-02T17:55:20.739Z,21.67
2023-03-02T17:59:20.578Z,21.66
2023-03-02T18:03:20.410Z,21.84
2023-03-02T18:07:20.301Z,21.96
2023-03-02T18:11:20.112Z,22.04
2023-03-02T18:15:19.911Z,22.04
2023-03-02T18:19:19.671Z,22.06
2023-03-02T18:23:19.623Z,22.04
2023-03-02T18:27:19.420Z,22.04
2023-03-02T18:31:19.191Z,22.03
2023-03-02T18:35:18.995Z,22.03
2023-03-02T18:39:18.767Z,21.99
2023-03-02T18:43:18.650Z,22.00
2023-03-02T18:47:18.422Z,22.00
2023-03-02T18:51:18.251Z,21.99
2023-03-02T18:55:18.077Z,21.96
2023-03-02T18:59:17.918Z,21.94
2023-03-02T19:03:17.663Z,21.96
2023-03-02T19:07:17.492Z,21.93
2023-03-02T19:11:17.324Z,21.93
2023-03-02T19:15:17.176Z,21.92
2023-03-02T19:19:16.987Z,21.92
2023-03-02T19:23:16.794Z,21.92
2023-03-02T19:27:16.612Z,21.90
2023-03-02T19:31:16.490Z,21.87
2023-03-02T19:35:16.340Z,21.89
2023-03-02T19:39:16.127Z,21.87
2023-03-02T19:43:16.001Z,21.86
2023-03-02T19:47:15.781Z,21.87
2023-03-02T19:51:15.636Z,21.87
2023-03-02T19:55:15.498Z,21.84
2023-03-02T19:59:15.316Z,21.84
2023-03-02T20:03:15.158Z,21.84
2023-03-02T20:07:14.996Z,21.83
2023-03-02T20:11:14.802Z,21.83
2023-03-02T20:15:14.640Z,21.80
2023-03-02T20:19:14.493Z,21.80
2023-03-02T20:23:14.305Z,21.82
2023-03-02T20:27:14.185Z,21.77
2023-03-02T20:31:14.273Z,21.79
2023-03-02T20:35:14.042Z,21.79
2023-03-02T20:39:14.036Z,21.77
2023-03-02T20:43:13.963Z,21.77
2023-03-02T20:47:13.869Z,21.77
2023-03-02T20:51:13.811Z,21.77
2023-03-02T20:55:13.736Z,21.74
2023-03-02T20:59:13.714Z,21.76
2023-03-02T21:03:13.666Z,21.74
2023-03-02T21:07:13.640Z,21.74
2023-03-02T21:11:13.557Z,21.74
2023-03-02T21:15:13.516Z,21.73
2023-03-02T21:19:13.466Z,21.70
2023-03-02T21:23:13.389Z,21.70
2023-03-02T21:27:13.381Z,21.70
2023-03-02T21:31:13.355Z,21.72
2023-03-02T21:35:13.387Z,21.70
2023-03-02T21:39:13.335Z,21.72
2023-03-02T21:43:13.335Z,21.69
2023-03-02T21:47:13.297Z,21.69
2023-03-02T21:51:13.321Z,21.67
2023-03-02T21:55:13.318Z,21.66
2023-03-02T21:59:13.271Z,21.64
2023-03-02T22:03:13.294Z,21.66
2023-03-02T22:07:13.343Z,21.66
2023-03-02T22:11:13.323Z,21.66
2023-03-02T22:15:13.321Z,21.63
2023-03-02T22:19:13.366Z,21.64
2023-03-02T22:23:13.404Z,21.63
2023-03-02T22:27:13.369Z,21.64
2023-03-02T22:31:13.389Z,21.63
2023-03-02T22:35:13.383Z,21.62
2023-03-02T22:39:13.438Z,21.62
2023-03-02T22:43:13.462Z,21.62
2023-03-02T22:47:13.482Z,21.62
2023-03-02T22:51:13.532Z,21.62
2023-03-02T22:55:13.609Z,21.63
2023-03-02T22:59:14.609Z,21.60
2023-03-02T23:03:15.488Z,21.57
2023-03-02T23:07:13.395Z,21.60
2023-03-02T23:11:13.231Z,21.59
2023-03-02T23:15:13.085Z,21.59
2023-03-02T23:19:12.915Z,21.60
2023-03-02T23:23:12.771Z,21.54
2023-03-02T23:27:12.604Z,21.57
2023-03-02T23:31:12.417Z,21.56
2023-03-02T23:35:12.198Z,21.54
2023-03-02T23:39:12.047Z,21.54
2023-03-02T23:43:11.844Z,21.54
2023-03-02T23:47:11.617Z,21.53
2023-03-02T23:51:11.575Z,21.56
2023-03-02T23:55:11.661Z,21.54
2023-03-02T23:59:11.690Z,21.54
